Time;durP1;ratioP1;P1;durP2;ratioP2;P2;SDS_P1;SDS_P2;PMS_P1;PMS_P2;Temp;Humidity;BMP_temperature;BMP_pressure;BME280_temperature;BME280_humidity;BME280_pressure;Samples;Min_cycle;Max_cycle;Signal;HPM_P1;HPM_P2
2023/06/07 00:00:33;;;;;;;6.80;3.40;;;15.90;1.00;;;;;;5014997;28;20206;-79
2023/06/07 00:02:59;;;;;;;6.10;3.73;;;15.90;1.00;;;;;;5011841;28;20451;-79
2023/06/07 00:05:50;;;;;;;4.80;3.83;;;16.00;1.00;;;;;;5010044;28;20430;-79
2023/06/07 00:08:50;;;;;;;7.80;3.60;;;15.90;1.00;;;;;;4997072;28;20160;-79
2023/06/07 00:11:15;;;;;;;3.43;3.13;;;16.00;1.00;;;;;;5014847;28;20413;-80
2023/06/07 00:13:41;;;;;;;4.63;3.80;;;16.00;1.00;;;;;;5014218;28;20429;-79
2023/06/07 00:16:07;;;;;;;7.60;3.70;;;16.10;1.00;;;;;;5013321;28;20191;-79
2023/06/07 00:18:33;;;;;;;4.80;3.87;;;16.10;1.00;;;;;;5015835;28;20171;-79
2023/06/07 00:20:59;;;;;;;6.10;3.87;;;16.20;1.00;;;;;;5013308;28;20599;-79
2023/06/07 00:23:28;;;;;;;3.97;3.30;;;16.20;1.00;;;;;;5011126;28;20436;-80
2023/06/07 00:25:54;;;;;;;9.93;4.20;;;16.20;1.00;;;;;;5010072;28;20768;-80
2023/06/07 00:28:20;;;;;;;4.77;3.73;;;16.30;1.00;;;;;;5014219;28;20443;-79
2023/06/07 00:30:46;;;;;;;7.87;3.90;;;16.30;1.00;;;;;;5014718;28;20430;-79
2023/06/07 00:33:11;;;;;;;13.10;4.20;;;16.40;1.00;;;;;;5014560;28;20202;-80
2023/06/07 00:35:37;;;;;;;9.60;4.40;;;16.40;1.00;;;;;;5015632;28;20224;-74
2023/06/07 00:38:14;;;;;;;6.50;4.10;;;16.40;1.00;;;;;;5015104;28;20564;-73
2023/06/07 00:40:40;;;;;;;8.30;4.10;;;16.50;1.00;;;;;;5008809;28;20182;-74
2023/06/07 00:43:06;;;;;;;4.60;4.17;;;16.50;1.00;;;;;;5014206;28;20429;-74
2023/06/07 00:45:32;;;;;;;9.43;3.73;;;16.40;1.00;;;;;;5015904;28;20424;-74
2023/06/07 00:48:09;;;;;;;7.70;3.73;;;16.40;1.00;;;;;;5014259;28;20178;-74
2023/06/07 00:50:39;;;;;;;10.83;4.10;;;16.50;1.00;;;;;;5015867;28;20425;-74
2023/06/07 00:53:05;;;;;;;6.90;3.93;;;16.50;1.00;;;;;;5015085;28;20430;-74
2023/06/07 00:55:32;;;;;;;4.43;4.03;;;16.60;1.00;;;;;;5015137;28;20802;-74
2023/06/07 00:58:02;;;;;;;6.73;4.07;;;16.60;1.00;;;;;;5014613;28;20438;-74
2023/06/07 01:00:29;;;;;;;11.40;3.90;;;16.70;1.00;;;;;;5015113;28;20440;-74
2023/06/07 01:02:56;;;;;;;5.23;3.50;;;16.70;1.00;;;;;;5012449;28;20941;-74
2023/06/07 01:05:23;;;;;;;14.23;4.27;;;16.70;1.00;;;;;;5014124;28;20430;-74
2023/06/07 01:07:51;;;;;;;11.30;4.53;;;16.70;1.00;;;;;;5015642;28;20506;-74
2023/06/07 01:10:17;;;;;;;10.30;4.70;;;16.70;1.00;;;;;;5015031;28;20414;-73
2023/06/07 01:12:44;;;;;;;6.60;4.00;;;16.70;1.00;;;;;;5010553;28;20436;-73
2023/06/07 01:15:13;;;;;;;6.23;4.20;;;16.70;1.00;;;;;;5012793;28;20520;-73
2023/06/07 01:17:44;;;;;;;4.80;3.80;;;16.70;1.00;;;;;;5011727;28;20470;-74
2023/06/07 01:20:25;;;;;;;6.53;4.67;;;16.70;1.00;;;;;;5015209;28;20438;-74
2023/06/07 01:23:02;;;;;;;5.40;3.50;;;16.70;1.00;;;;;;5014252;28;20441;-74
2023/06/07 01:25:32;;;;;;;11.93;4.30;;;16.70;1.00;;;;;;5012369;28;20787;-74
2023/06/07 01:28:00;;;;;;;4.93;3.80;;;16.70;1.00;;;;;;5002413;28;20787;-74
2023/06/07 01:30:31;;;;;;;6.57;4.03;;;16.70;1.00;;;;;;5001337;28;20890;-73
2023/06/07 01:33:04;;;;;;;4.70;3.50;;;16.70;1.00;;;;;;5010919;28;20437;-74
2023/06/07 01:38:53;;;;;;;17.03;5.00;;;16.70;1.00;;;;;;4994799;28;20371;-80
2023/06/07 01:41:51;;;;;;;5.67;3.80;;;16.70;1.00;;;;;;5013479;28;20453;-79
2023/06/07 01:44:20;;;;;;;8.30;3.90;;;16.60;1.00;;;;;;5014135;28;20473;-79
2023/06/07 01:50:09;;;;;;;4.43;4.03;;;16.50;1.00;;;;;;5014734;28;20747;-80
2023/06/07 01:52:35;;;;;;;6.00;4.30;;;16.50;1.00;;;;;;5004414;28;20529;-73
2023/06/07 01:55:03;;;;;;;7.33;4.47;;;16.50;1.00;;;;;;5013421;28;20464;-74
2023/06/07 01:57:52;;;;;;;7.60;4.50;;;16.50;1.00;;;;;;5003338;28;20482;-74
2023/06/07 02:00:29;;;;;;;6.20;4.13;;;16.50;1.00;;;;;;5006456;28;20939;-74
2023/06/07 02:03:24;;;;;;;4.80;4.20;;;16.50;1.00;;;;;;5009275;28;20525;-74
2023/06/07 02:05:54;;;;;;;5.47;4.50;;;16.40;1.00;;;;;;5014191;28;20412;-74
2023/06/07 02:08:45;;;;;;;5.00;4.37;;;16.40;1.00;;;;;;5005325;28;20405;-74
2023/06/07 02:11:13;;;;;;;6.97;4.33;;;16.40;1.00;;;;;;5008816;28;20433;-74
2023/06/07 02:13:43;;;;;;;7.93;3.77;;;16.40;1.00;;;;;;5009330;28;20461;-74
2023/06/07 02:16:10;;;;;;;16.40;5.20;;;16.30;1.00;;;;;;4995591;28;20511;-74
2023/06/07 02:18:50;;;;;;;12.60;4.00;;;16.20;1.00;;;;;;5014156;28;20414;-74
2023/06/07 02:21:26;;;;;;;7.10;4.10;;;16.20;1.00;;;;;;5005351;28;20392;-80
2023/06/07 02:24:32;;;;;;;6.43;4.80;;;16.20;1.00;;;;;;5013619;28;20864;-79
2023/06/07 02:27:32;;;;;;;7.93;4.40;;;16.10;1.00;;;;;;5013784;28;20444;-80
2023/06/07 02:33:38;;;;;;;10.50;4.80;;;15.90;1.00;;;;;;5001006;28;20484;-80
2023/06/07 02:36:21;;;;;;;5.27;4.30;;;15.80;1.00;;;;;;5014115;28;20437;-79
2023/06/07 02:39:32;;;;;;;4.53;4.10;;;15.80;1.00;;;;;;5013733;28;20893;-79
2023/06/07 02:45:19;;;;;;;4.77;4.27;;;15.60;1.00;;;;;;5014201;28;20435;-87
2023/06/07 02:54:29;;;;;;;4.43;4.03;;;15.50;1.00;;;;;;5013322;28;20479;-84
2023/06/07 03:03:38;;;;;;;8.63;4.30;;;15.20;1.00;;;;;;5012811;28;20792;-84
2023/06/07 03:09:25;;;;;;;4.63;4.13;;;15.10;1.00;;;;;;5013879;28;20176;-87
2023/06/07 03:11:51;;;;;;;11.10;4.80;;;15.00;1.00;;;;;;4995773;28;20394;-86
2023/06/07 03:14:19;;;;;;;5.07;4.33;;;15.00;1.00;;;;;;4976765;28;20248;-87
2023/06/07 03:16:54;;;;;;;5.30;4.70;;;14.90;1.00;;;;;;4991190;28;20391;-87
2023/06/07 03:33:15;;;;;;;8.10;4.77;;;14.40;1.00;;;;;;5008781;28;20401;-88
2023/06/07 03:39:14;;;;;;;10.00;6.27;;;14.30;1.00;;;;;;4997982;28;20493;-87
2023/06/07 03:45:02;;;;;;;8.37;5.20;;;14.20;1.00;;;;;;4998208;28;20834;-88
2023/06/07 03:54:36;;;;;;;7.47;4.63;;;14.10;1.00;;;;;;5015922;28;20462;-87
2023/06/07 04:07:08;;;;;;;16.33;5.10;;;14.20;1.00;;;;;;5016582;28;20373;-83
2023/06/07 04:09:39;;;;;;;7.83;5.00;;;14.30;1.00;;;;;;5004450;28;20424;-83
2023/06/07 04:12:26;;;;;;;11.80;5.30;;;14.30;1.00;;;;;;4995440;28;20546;-83
2023/06/07 04:15:20;;;;;;;12.40;5.97;;;14.30;1.00;;;;;;5005724;28;20541;-83
2023/06/07 04:21:07;;;;;;;6.93;5.50;;;14.50;1.00;;;;;;5007819;28;20383;-84
2023/06/07 04:27:29;;;;;;;6.67;5.17;;;14.70;1.00;;;;;;5000151;28;20205;-90
2023/06/07 04:29:58;;;;;;;6.00;5.03;;;14.70;1.00;;;;;;4999341;28;20402;-89
2023/06/07 04:32:27;;;;;;;13.40;5.37;;;14.90;1.00;;;;;;4999478;28;20424;-90
2023/06/07 04:35:14;;;;;;;7.27;4.87;;;15.20;1.00;;;;;;5001652;28;20433;-90
2023/06/07 04:41:06;;;;;;;7.60;5.27;;;14.90;1.00;;;;;;5016323;28;20436;-90
2023/06/07 04:53:38;;;;;;;6.73;4.77;;;15.30;1.00;;;;;;4997064;28;20949;-90
2023/06/07 04:59:52;;;;;;;6.70;4.50;;;15.60;1.00;;;;;;5015539;28;20403;-90
2023/06/07 05:02:18;;;;;;;5.80;5.20;;;;;;;;;;4995318;28;20524;-90
2023/06/07 05:04:44;;;;;;;16.83;6.00;;;15.80;1.00;;;;;;4999172;28;20413;-90
2023/06/07 05:07:14;;;;;;;9.80;5.80;;;15.90;1.00;;;;;;4999182;28;20498;-87
2023/06/07 05:13:01;;;;;;;5.13;4.47;;;16.20;1.00;;;;;;5013663;28;20420;-84
2023/06/07 05:22:45;;;;;;;6.93;4.93;;;16.80;1.00;;;;;;5015245;28;20413;-84
2023/06/07 05:25:44;;;;;;;7.47;4.77;;;17.00;1.00;;;;;;4983128;28;20470;-84
2023/06/07 05:32:26;;;;;;;7.73;5.33;;;17.60;1.00;;;;;;5010938;28;20942;-84
2023/06/07 05:35:14;;;;;;;6.17;5.10;;;17.90;1.00;;;;;;5009336;28;20437;-84
2023/06/07 05:38:14;;;;;;;7.73;4.60;;;18.20;1.00;;;;;;5015198;28;20937;-91
2023/06/07 05:40:39;;;;;;;14.30;5.30;;;18.40;1.00;;;;;;4997164;28;20428;-91
2023/06/07 05:43:14;;;;;;;8.70;5.40;;;18.60;1.00;;;;;;4994302;28;20428;-91
2023/06/07 05:52:24;;;;;;;12.40;4.63;;;19.20;1.00;;;;;;5015367;28;20374;-90
2023/06/07 05:55:45;;;;;;;9.37;4.10;;;19.40;1.00;;;;;;4998095;28;20456;-91
2023/06/07 05:58:44;;;;;;;8.53;4.83;;;19.50;1.00;;;;;;4996208;28;20709;-89
2023/06/07 06:04:32;;;;;;;9.00;4.20;;;20.00;1.00;;;;;;4995472;28;20447;-91
2023/06/07 06:07:09;;;;;;;8.20;5.20;;;20.20;1.00;;;;;;4978514;28;20538;-91
2023/06/07 06:09:41;;;;;;;13.03;5.20;;;20.30;1.00;;;;;;4987675;28;20444;-91
2023/06/07 06:12:09;;;;;;;7.70;4.53;;;20.50;1.00;;;;;;4994761;28;20431;-91
2023/06/07 06:14:34;;;;;;;6.73;4.50;;;20.60;1.00;;;;;;4997186;28;20519;-91
2023/06/07 06:17:02;;;;;;;8.83;4.53;;;20.80;1.00;;;;;;5008051;28;20465;-91
2023/06/07 06:23:26;;;;;;;7.13;4.57;;;21.10;1.00;;;;;;5007510;28;20839;-90
2023/06/07 06:26:02;;;;;;;15.10;4.97;;;21.50;1.00;;;;;;4995844;28;20947;-91
2023/06/07 06:32:14;;;;;;;8.00;5.00;;;22.10;1.00;;;;;;5014915;28;20437;-92
2023/06/07 06:38:44;;;;;;;7.10;4.47;;;22.50;1.00;;;;;;5014508;28;20431;-91
2023/06/07 06:44:44;;;;;;;6.20;4.53;;;23.00;1.00;;;;;;5003812;28;20425;-84
2023/06/07 06:47:44;;;;;;;4.93;4.03;;;23.00;1.00;;;;;;5009688;28;20420;-84
2023/06/07 06:50:14;;;;;;;6.33;4.27;;;23.10;1.00;;;;;;4990808;28;20514;-84
2023/06/07 06:56:14;;;;;;;15.03;5.50;;;23.30;1.00;;;;;;5012750;28;20569;-84
2023/06/07 06:59:14;;;;;;;7.50;5.00;;;23.20;1.00;;;;;;5000965;28;20438;-84
2023/06/07 07:02:15;;;;;;;10.00;5.17;;;23.30;1.00;;;;;;4989017;28;20423;-84
2023/06/07 07:08:39;;;;;;;12.47;4.97;;;23.50;1.00;;;;;;5011931;28;20402;-84
2023/06/07 07:11:44;;;;;;;10.20;5.10;;;23.60;1.00;;;;;;4992803;28;20429;-92
2023/06/07 07:14:09;;;;;;;5.30;4.80;;;23.70;1.00;;;;;;4973093;28;20466;-91
2023/06/07 07:20:10;;;;;;;11.47;4.67;;;23.50;1.00;;;;;;4967238;28;20256;-92
2023/06/07 07:23:14;;;;;;;22.77;5.23;;;23.30;1.00;;;;;;4948464;28;20429;-92
2023/06/07 07:25:42;;;;;;;23.17;4.77;;;23.10;1.00;;;;;;4951586;28;20499;-84
2023/06/07 07:28:19;;;;;;;8.97;5.33;;;23.10;1.00;;;;;;4971545;28;20424;-84
2023/06/07 07:31:15;;;;;;;8.63;4.57;;;23.10;1.00;;;;;;4955691;28;20508;-84
2023/06/07 07:33:56;;;;;;;6.33;5.10;;;23.20;1.00;;;;;;4964928;28;20485;-85
2023/06/07 07:36:44;;;;;;;6.00;4.50;;;23.30;1.00;;;;;;4968348;28;20446;-85
2023/06/07 07:39:44;;;;;;;16.90;5.13;;;23.20;1.00;;;;;;4953095;29;20445;-85
2023/06/07 07:42:27;;;;;;;11.77;5.40;;;23.30;1.00;;;;;;4949141;28;20468;-84
2023/06/07 07:45:09;;;;;;;6.80;5.43;;;23.40;1.00;;;;;;4967416;28;20954;-85
2023/06/07 07:47:35;;;;;;;5.93;4.60;;;23.40;1.00;;;;;;4944668;28;20410;-85
2023/06/07 07:50:26;;;;;;;6.93;5.13;;;23.50;1.00;;;;;;4956025;28;20444;-84
2023/06/07 07:53:15;;;;;;;5.03;4.53;;;23.50;1.00;;;;;;4953300;29;20197;-85
2023/06/07 07:55:44;;;;;;;6.83;4.63;;;23.50;1.00;;;;;;4951320;28;20440;-84
2023/06/07 07:58:44;;;;;;;9.67;5.27;;;23.50;1.00;;;;;;4937498;29;20420;-84
2023/06/07 08:01:45;;;;;;;9.87;5.33;;;23.60;1.00;;;;;;4947478;28;20869;-84
2023/06/07 08:04:44;;;;;;;8.23;4.87;;;23.60;1.00;;;;;;4957440;28;20425;-85
2023/06/07 08:07:15;;;;;;;8.43;5.00;;;23.60;1.00;;;;;;4999778;28;20421;-85
2023/06/07 08:09:44;;;;;;;8.20;5.10;;;23.70;1.00;;;;;;4999378;28;20763;-85
2023/06/07 08:12:14;;;;;;;8.43;6.03;;;23.80;1.00;;;;;;4998953;28;20934;-84
2023/06/07 08:14:44;;;;;;;14.97;6.43;;;23.90;1.00;;;;;;4994124;28;20471;-85
2023/06/07 08:17:44;;;;;;;9.90;5.70;;;23.90;1.00;;;;;;4995729;28;20438;-85
2023/06/07 08:20:44;;;;;;;5.60;4.80;;;24.00;1.00;;;;;;4997209;28;20428;-84
2023/06/07 08:23:14;;;;;;;14.53;5.10;;;24.10;1.00;;;;;;5010384;28;20432;-84
2023/06/07 08:25:44;;;;;;;5.80;5.10;;;24.20;1.00;;;;;;4982128;28;20840;-93
2023/06/07 08:31:45;;;;;;;7.53;5.03;;;24.40;1.00;;;;;;5016053;28;20425;-92
2023/06/07 08:34:44;;;;;;;5.80;5.20;;;24.30;1.00;;;;;;4998096;28;20553;-92
2023/06/07 08:37:14;;;;;;;6.43;4.60;;;24.40;1.00;;;;;;4999503;28;20439;-91
2023/06/07 08:39:44;;;;;;;6.47;5.10;;;24.40;1.00;;;;;;4999170;28;20425;-91
2023/06/07 08:42:14;;;;;;;9.67;5.30;;;24.60;1.00;;;;;;4997837;28;20435;-91
2023/06/07 08:44:44;;;;;;;9.50;5.20;;;24.80;1.00;;;;;;4998076;28;20428;-92
2023/06/07 08:47:44;;;;;;;8.90;5.30;;;24.90;1.00;;;;;;4998981;28;20481;-91
2023/06/07 08:50:38;;;;;;;6.93;4.90;;;24.90;1.00;;;;;;4992184;28;20438;-91
2023/06/07 08:53:18;;;;;;;12.23;5.33;;;25.10;1.00;;;;;;4996825;28;20485;-91
2023/06/07 08:56:15;;;;;;;11.63;4.70;;;25.30;1.00;;;;;;4988305;28;20513;-91
2023/06/07 08:58:45;;;;;;;11.07;5.00;;;25.40;1.00;;;;;;4991915;28;20421;-92
2023/06/07 09:01:15;;;;;;;7.70;5.27;;;25.70;1.00;;;;;;4989077;28;20930;-92
2023/06/07 09:03:45;;;;;;;11.37;5.30;;;25.90;1.00;;;;;;4995624;28;20431;-92
2023/06/07 09:06:16;;;;;;;7.70;5.40;;;26.10;1.00;;;;;;4996712;28;20827;-93
2023/06/07 09:12:14;;;;;;;6.30;4.73;;;26.40;1.00;;;;;;5015102;28;20462;-92
2023/06/07 09:14:40;;;;;;;7.23;5.33;;;26.40;1.00;;;;;;4998238;28;20560;-92
2023/06/07 09:17:06;;;;;;;7.87;5.60;;;26.50;1.00;;;;;;4998539;28;20413;-92
2023/06/07 09:19:36;;;;;;;9.30;5.80;;;26.60;1.00;;;;;;4998853;28;20470;-92
2023/06/07 09:22:14;;;;;;;6.80;4.83;;;26.70;1.00;;;;;;5015980;28;20173;-92
2023/06/07 09:24:44;;;;;;;6.93;5.70;;;27.30;1.00;;;;;;4996283;28;20427;-86
2023/06/07 09:27:49;;;;;;;9.00;5.17;;;27.50;1.00;;;;;;4984395;28;20462;-92
2023/06/07 09:31:04;;;;;;;8.53;5.93;;;27.70;1.00;;;;;;4985621;28;20429;-93
2023/06/07 09:44:05;;;;;;;6.77;5.13;;;28.40;1.00;;;;;;4955528;29;20405;-92
2023/06/07 09:47:02;;;;;;;8.03;4.50;;;28.60;1.00;;;;;;4944681;29;20428;-93
2023/06/07 09:49:44;;;;;;;10.57;5.00;;;28.80;1.00;;;;;;4954236;29;20501;-79
2023/06/07 09:52:14;;;;;;;5.20;4.20;;;28.90;1.00;;;;;;4954296;29;20406;-79
2023/06/07 09:54:50;;;;;;;20.27;6.30;;;28.90;1.00;;;;;;4959981;28;20465;-79
2023/06/07 09:57:25;;;;;;;10.03;5.10;;;28.80;1.00;;;;;;4947683;28;20918;-75
2023/06/07 10:00:16;;;;;;;9.60;5.43;;;28.70;1.00;;;;;;4953909;29;20412;-75
2023/06/07 10:02:48;;;;;;;14.10;5.67;;;28.90;1.00;;;;;;4943484;28;20437;-75
2023/06/07 10:05:16;;;;;;;6.70;5.60;;;28.90;1.00;;;;;;4953631;29;20434;-75
2023/06/07 10:07:49;;;;;;;7.10;5.30;;;29.10;1.00;;;;;;4954076;29;20430;-75
2023/06/07 10:10:24;;;;;;;10.37;4.90;;;29.50;1.00;;;;;;4992352;28;20454;-75
2023/06/07 10:12:51;;;;;;;9.40;5.17;;;29.50;1.00;;;;;;5014320;28;20450;-75
2023/06/07 10:15:24;;;;;;;9.20;5.33;;;29.60;1.00;;;;;;5013890;28;20482;-75
2023/06/07 10:18:02;;;;;;;17.23;5.90;;;29.70;1.00;;;;;;5014224;28;20850;-75
2023/06/07 10:20:36;;;;;;;10.10;5.93;;;29.60;1.00;;;;;;5000886;28;20450;-75
2023/06/07 10:23:16;;;;;;;12.87;5.60;;;29.60;1.00;;;;;;5014044;28;20414;-75
2023/06/07 10:25:51;;;;;;;8.80;6.10;;;29.70;1.00;;;;;;5013851;28;20395;-75
2023/06/07 10:28:36;;;;;;;5.83;5.20;;;29.40;1.00;;;;;;5014206;28;20418;-75
2023/06/07 10:31:07;;;;;;;6.77;5.33;;;29.30;1.00;;;;;;5011664;28;20951;-75
2023/06/07 10:33:40;;;;;;;5.70;4.70;;;29.10;1.00;;;;;;5008860;28;20455;-75
2023/06/07 10:36:08;;;;;;;8.80;4.97;;;29.10;1.00;;;;;;4995623;28;20426;-75
2023/06/07 10:38:34;;;;;;;8.57;5.13;;;28.90;1.00;;;;;;5002231;28;20467;-74
2023/06/07 10:41:02;;;;;;;6.33;4.63;;;28.90;1.00;;;;;;5012376;28;21109;-84
2023/06/07 10:50:47;;;;;;;7.37;5.30;;;28.90;1.00;;;;;;4994033;28;20781;-84
2023/06/07 10:57:20;;;;;;;6.50;4.43;;;28.80;1.00;;;;;;4953075;28;21037;-79
2023/06/07 10:59:50;;;;;;;6.27;5.37;;;28.80;1.00;;;;;;4943352;28;20497;-79
2023/06/07 11:02:41;;;;;;;9.13;5.40;;;29.00;1.00;;;;;;4951663;29;20774;-79
2023/06/07 11:05:44;;;;;;;5.73;4.50;;;29.00;1.00;;;;;;4931152;29;20434;-81
2023/06/07 11:08:32;;;;;;;7.40;5.33;;;28.90;1.00;;;;;;4947134;29;20449;-81
2023/06/07 11:11:02;;;;;;;5.90;5.27;;;28.90;1.00;;;;;;4951426;28;20450;-79
2023/06/07 11:13:43;;;;;;;6.57;4.33;;;28.80;1.00;;;;;;4952385;28;20448;-79
2023/06/07 11:20:05;;;;;;;8.10;4.77;;;28.60;1.00;;;;;;4945838;29;20408;-80
2023/06/07 11:22:51;;;;;;;7.10;4.53;;;28.40;1.00;;;;;;4951512;28;20441;-79
2023/06/07 11:28:40;;;;;;;7.13;5.10;;;28.00;1.00;;;;;;4941517;29;20399;-80
2023/06/07 11:31:44;;;;;;;6.40;5.20;;;28.00;1.00;;;;;;5008260;28;20439;-80
2023/06/07 11:34:12;;;;;;;7.37;5.00;;;28.20;1.00;;;;;;5013243;28;20455;-79
2023/06/07 11:40:00;;;;;;;5.40;4.90;;;28.20;1.00;;;;;;5015051;28;20407;-79
2023/06/07 11:42:50;;;;;;;11.70;5.07;;;28.00;1.00;;;;;;5004028;28;20944;-82
2023/06/07 11:52:00;;;;;;;6.67;5.23;;;28.60;1.00;;;;;;5005563;28;20429;-82
2023/06/07 11:57:54;;;;;;;6.13;4.60;;;28.70;1.00;;;;;;5011879;28;20291;-79
2023/06/07 12:00:21;;;;;;;7.03;5.47;;;28.80;1.00;;;;;;5016183;28;20427;-79
2023/06/07 12:03:21;;;;;;;5.53;4.70;;;28.90;1.00;;;;;;5013871;28;20434;-79
2023/06/07 12:05:53;;;;;;;5.07;4.57;;;29.10;1.00;;;;;;5008430;28;20448;-79
2023/06/07 12:15:07;;;;;;;7.13;4.90;;;29.70;1.00;;;;;;5009865;28;20506;-82
2023/06/07 12:18:26;;;;;;;6.80;4.57;;;29.90;1.00;;;;;;4992452;28;20482;-82
2023/06/07 12:21:08;;;;;;;8.13;5.00;;;30.30;1.00;;;;;;4993902;28;20925;-82
2023/06/07 12:24:00;;;;;;;4.30;3.90;;;30.50;1.00;;;;;;5014891;28;20934;-82
2023/06/07 12:26:36;;;;;;;5.27;4.57;;;30.70;1.00;;;;;;4998380;28;20432;-81
2023/06/07 12:29:03;;;;;;;5.00;4.30;;;30.70;1.00;;;;;;4991058;28;20444;-81
2023/06/07 12:31:41;;;;;;;5.27;4.70;;;30.80;1.00;;;;;;5014978;28;20440;-81
2023/06/07 12:37:58;;;;;;;7.70;4.70;;;31.20;1.00;;;;;;5015399;28;20918;-82
2023/06/07 12:44:38;;;;;;;4.73;4.43;;;31.50;1.00;;;;;;5008461;28;20391;-82
2023/06/07 12:47:05;;;;;;;4.70;4.30;;;31.60;1.00;;;;;;5005534;28;20768;-82
2023/06/07 12:53:14;;;;;;;4.80;4.40;;;31.40;1.00;;;;;;5002484;28;20929;-79
2023/06/07 12:56:14;;;;;;;5.03;4.30;;;31.20;1.00;;;;;;5011465;28;20451;-80
2023/06/07 13:02:20;;;;;;;5.10;4.50;;;31.30;1.00;;;;;;5009991;28;20519;-80
2023/06/07 13:08:07;;;;;;;4.63;4.23;;;31.20;1.00;;;;;;5013214;28;20422;-80
2023/06/07 13:10:45;;;;;;;4.70;4.30;;;31.30;1.00;;;;;;5015394;28;20416;-80
2023/06/07 13:13:15;;;;;;;4.67;4.27;;;31.30;1.00;;;;;;5014585;28;20200;-80
2023/06/07 13:15:40;;;;;;;4.50;4.20;;;31.50;1.00;;;;;;5015002;28;20521;-78
2023/06/07 13:21:28;;;;;;;5.30;4.33;;;31.60;1.00;;;;;;5010555;28;20607;-83
2023/06/07 13:24:44;;;;;;;4.93;4.20;;;31.60;1.00;;;;;;5020783;28;20442;-83
2023/06/07 13:27:45;;;;;;;4.00;3.80;;;31.50;1.00;;;;;;4996114;28;20398;-83
2023/06/07 13:37:03;;;;;;;7.30;4.20;;;31.30;1.00;;;;;;5005828;28;20446;-81
2023/06/07 13:40:14;;;;;;;4.93;3.80;;;31.30;1.00;;;;;;5012660;28;20427;-79
2023/06/07 13:42:45;;;;;;;4.67;4.27;;;31.10;1.00;;;;;;5014173;28;20438;-84
2023/06/07 13:45:45;;;;;;;4.23;3.90;;;31.20;1.00;;;;;;4997089;28;20766;-85
2023/06/07 13:48:15;;;;;;;6.03;3.97;;;31.00;1.00;;;;;;4997223;28;20454;-85
2023/06/07 13:54:03;;;;;;;7.03;4.17;;;30.70;1.00;;;;;;5004788;28;20459;-83
2023/06/07 13:57:15;;;;;;;4.30;3.83;;;30.50;1.00;;;;;;5008552;28;20424;-88
2023/06/07 13:59:45;;;;;;;6.23;4.07;;;30.40;1.00;;;;;;5010940;28;20196;-85
2023/06/07 14:02:45;;;;;;;4.30;4.00;;;30.40;1.00;;;;;;5013526;28;20455;-83
2023/06/07 14:05:15;;;;;;;3.93;3.53;;;30.80;1.00;;;;;;5008904;28;20920;-83
2023/06/07 14:07:51;;;;;;;4.83;4.17;;;30.90;1.00;;;;;;4996478;28;20467;-83
2023/06/07 14:13:38;;;;;;;5.60;3.80;;;31.30;1.00;;;;;;5011451;28;20825;-88
2023/06/07 14:16:44;;;;;;;4.30;3.90;;;31.30;1.00;;;;;;5013805;28;20515;-88
2023/06/07 14:19:15;;;;;;;4.00;3.70;;;31.30;1.00;;;;;;4996521;28;20184;-81
2023/06/07 14:22:09;;;;;;;5.40;3.60;;;30.90;1.00;;;;;;5000535;28;21083;-85
2023/06/07 14:24:34;;;;;;;3.70;3.33;;;30.80;1.00;;;;;;5008284;28;20436;-75
2023/06/07 14:27:00;;;;;;;4.10;3.73;;;30.70;1.00;;;;;;5008967;28;20598;-75
2023/06/07 14:29:26;;;;;;;5.70;3.83;;;30.60;1.00;;;;;;5010361;28;20181;-75
2023/06/07 14:31:57;;;;;;;5.33;3.70;;;30.40;1.00;;;;;;4996168;28;20192;-75
2023/06/07 14:34:23;;;;;;;4.00;3.70;;;30.30;1.00;;;;;;5013758;28;20244;-75
2023/06/07 14:36:50;;;;;;;3.97;3.67;;;30.20;1.00;;;;;;5008290;28;20440;-75
2023/06/07 14:39:17;;;;;;;4.53;3.80;;;30.10;1.00;;;;;;5013137;28;20919;-75
2023/06/07 14:41:43;;;;;;;6.77;3.53;;;30.00;1.00;;;;;;5008676;28;20432;-75
2023/06/07 14:44:09;;;;;;;9.13;3.80;;;29.90;1.00;;;;;;5013149;28;20958;-74
2023/06/07 14:46:35;;;;;;;4.80;3.37;;;29.80;1.00;;;;;;5011025;28;20432;-75
2023/06/07 14:49:00;;;;;;;5.30;3.70;;;29.70;1.00;;;;;;5006656;28;20431;-75
2023/06/07 14:51:30;;;;;;;33.07;4.10;;;29.50;1.00;;;;;;5011780;28;20264;-75
2023/06/07 14:53:56;;;;;;;7.27;3.97;;;29.50;1.00;;;;;;5012671;28;20641;-75
2023/06/07 14:56:21;;;;;;;4.40;4.00;;;29.30;1.00;;;;;;5013073;28;20442;-75
2023/06/07 14:58:48;;;;;;;5.70;4.13;;;29.20;1.00;;;;;;5011183;28;20448;-75
2023/06/07 15:01:14;;;;;;;5.57;3.87;;;29.10;1.00;;;;;;5013529;28;20435;-75
2023/06/07 15:03:41;;;;;;;4.87;4.47;;;29.10;1.00;;;;;;5013582;28;20169;-75
2023/06/07 15:06:09;;;;;;;7.37;3.90;;;29.30;1.00;;;;;;5011757;28;20213;-75
2023/06/07 15:08:35;;;;;;;4.67;4.13;;;29.30;1.00;;;;;;5013468;28;20466;-75
2023/06/07 15:11:01;;;;;;;5.47;4.77;;;29.30;1.00;;;;;;5012982;28;20907;-75
2023/06/07 15:13:27;;;;;;;5.17;4.20;;;29.80;1.00;;;;;;5016642;28;20474;-75
2023/06/07 15:15:53;;;;;;;4.37;3.97;;;31.40;1.00;;;;;;5016899;28;20821;-75
2023/06/07 15:18:20;;;;;;;3.80;3.50;;;33.20;1.00;;;;;;5008422;28;20692;-75
2023/06/07 15:20:46;;;;;;;3.73;3.43;;;34.80;1.00;;;;;;5002753;28;20182;-75
2023/06/07 15:23:12;;;;;;;3.43;3.23;;;36.10;1.00;;;;;;5011985;28;20485;-75
2023/06/07 15:25:38;;;;;;;3.43;3.23;;;37.20;1.00;;;;;;5017036;28;20502;-75
2023/06/07 15:28:15;;;;;;;3.07;2.87;;;37.90;1.00;;;;;;5006539;28;20293;-78
2023/06/07 15:31:15;;;;;;;3.03;2.83;;;38.90;1.00;;;;;;5017292;28;20215;-82
2023/06/07 15:34:15;;;;;;;2.70;2.60;;;39.80;1.00;;;;;;5016875;28;20420;-81
2023/06/07 15:40:44;;;;;;;2.90;2.70;;;41.70;1.00;;;;;;5011428;28;20407;-82
2023/06/07 15:43:15;;;;;;;3.00;2.10;;;42.90;1.00;;;;;;5016962;28;20503;-81
2023/06/07 15:45:41;;;;;;;2.17;2.07;;;44.00;1.00;;;;;;5016088;28;20431;-76
2023/06/07 15:48:07;;;;;;;2.10;2.00;;;44.60;1.00;;;;;;5014801;28;20483;-76
2023/06/07 15:50:32;;;;;;;1.70;1.60;;;45.20;1.00;;;;;;5016633;28;20177;-76
2023/06/07 15:52:59;;;;;;;5.73;2.10;;;45.60;1.00;;;;;;5016479;28;20178;-76
2023/06/07 15:55:27;;;;;;;2.10;2.00;;;45.30;1.00;;;;;;5003849;28;20276;-76
2023/06/07 15:57:53;;;;;;;2.73;2.00;;;44.70;1.00;;;;;;5016441;28;20411;-76
2023/06/07 16:01:14;;;;;;;1.90;1.90;;;45.00;1.00;;;;;;5004930;28;20519;-82
2023/06/07 16:07:15;;;;;;;1.90;1.80;;;45.90;1.00;;;;;;5012964;28;20490;-82
2023/06/07 16:10:15;;;;;;;2.03;1.73;;;45.70;1.00;;;;;;5016434;28;20400;-82
2023/06/07 16:13:33;;;;;;;5.67;2.43;;;45.40;1.00;;;;;;5016618;28;20507;-82
2023/06/07 16:19:21;;;;;;;2.03;1.93;;;44.10;1.00;;;;;;5007717;28;20399;-82
2023/06/07 16:25:27;;;;;;;2.20;2.10;;;44.90;1.00;;;;;;5015615;28;20184;-82
2023/06/07 16:28:27;;;;;;;2.03;1.83;;;45.30;1.00;;;;;;5012812;28;20420;-81
2023/06/07 16:30:52;;;;;;;2.33;1.80;;;45.40;1.00;;;;;;5014949;28;20808;-76
2023/06/07 16:33:18;;;;;;;3.90;2.50;;;45.40;1.00;;;;;;5015759;28;20404;-76
2023/06/07 16:35:44;;;;;;;2.27;2.10;;;45.70;1.00;;;;;;5014128;28;20197;-76
2023/06/07 16:38:10;;;;;;;2.10;2.00;;;45.60;1.00;;;;;;5006052;28;20545;-76
2023/06/07 16:40:36;;;;;;;1.90;1.80;;;45.20;1.00;;;;;;5014744;28;20408;-76
2023/06/07 16:43:02;;;;;;;2.17;1.97;;;45.00;1.00;;;;;;5015082;28;20263;-76
2023/06/07 16:48:49;;;;;;;2.50;2.30;;;45.10;1.00;;;;;;5015476;28;20184;-82
2023/06/07 16:51:15;;;;;;;3.20;2.20;;;45.60;1.00;;;;;;5015784;28;20427;-82
2023/06/07 16:53:51;;;;;;;2.83;2.40;;;45.90;1.00;;;;;;5015723;28;20194;-82
2023/06/07 16:56:45;;;;;;;3.13;2.17;;;46.20;1.00;;;;;;5015613;28;20319;-82
2023/06/07 16:59:11;;;;;;;2.60;2.23;;;46.40;1.00;;;;;;5015966;28;20453;-76
2023/06/07 17:01:39;;;;;;;2.70;2.60;;;46.40;1.00;;;;;;5015315;28;20458;-76
2023/06/07 17:04:05;;;;;;;3.27;2.40;;;46.70;1.00;;;;;;5012135;28;20431;-76
2023/06/07 17:06:32;;;;;;;2.20;2.10;;;46.30;1.00;;;;;;5014705;28;20407;-76
2023/06/07 17:08:57;;;;;;;2.63;2.53;;;45.30;1.00;;;;;;5014935;28;20416;-76
2023/06/07 17:11:25;;;;;;;2.87;2.67;;;43.80;1.00;;;;;;5003060;28;20420;-76
2023/06/07 17:13:50;;;;;;;3.43;3.23;;;42.20;1.00;;;;;;5014756;28;20179;-75
2023/06/07 17:16:16;;;;;;;3.40;3.20;;;40.70;1.00;;;;;;5014772;28;20439;-75
2023/06/07 17:18:42;;;;;;;3.53;3.23;;;39.40;1.00;;;;;;5012981;28;20181;-75
2023/06/07 17:21:08;;;;;;;4.33;4.03;;;38.50;1.00;;;;;;5008340;28;20177;-76
2023/06/07 17:23:34;;;;;;;5.40;4.00;;;37.60;1.00;;;;;;5010425;28;20181;-75
2023/06/07 17:26:00;;;;;;;4.20;3.80;;;36.60;1.00;;;;;;5014956;28;20252;-75
2023/06/07 17:28:27;;;;;;;4.43;4.13;;;35.70;1.00;;;;;;5014438;28;20175;-75
2023/06/07 17:31:15;;;;;;;4.77;4.23;;;34.60;1.00;;;;;;5015048;28;20420;-81
2023/06/07 17:37:45;;;;;;;5.37;4.97;;;32.70;1.00;;;;;;5010662;28;20400;-81
2023/06/07 17:40:33;;;;;;;5.63;4.70;;;31.60;1.00;;;;;;5010852;28;20412;-81
2023/06/07 17:43:45;;;;;;;7.20;5.33;;;30.80;1.00;;;;;;5014320;28;20861;-81
2023/06/07 17:46:15;;;;;;;8.00;5.40;;;30.20;1.00;;;;;;5007077;28;20466;-81
2023/06/07 17:52:03;;;;;;;6.47;5.10;;;29.20;1.00;;;;;;4995231;28;20726;-81
2023/06/07 17:58:45;;;;;;;11.10;5.70;;;28.30;1.00;;;;;;5009313;28;20202;-81
2023/06/07 18:01:46;;;;;;;7.00;4.70;;;27.90;1.00;;;;;;5014876;28;20426;-81
2023/06/07 18:07:33;;;;;;;6.37;5.77;;;27.30;1.00;;;;;;4995429;28;20946;-81